sensor_id;sensor_type;location;lat;lon;timestamp;pressure;altitude;pressure_sealevel;temperature;humidity
24422;BME280;12600;53.326;-6.298;2023-05-20T00:02:39;102660.03;;;17.54;53.65
24422;BME280;12600;53.326;-6.298;2023-05-20T00:05:29;102661.97;;;17.53;53.77
24422;BME280;12600;53.326;-6.298;2023-05-20T00:08:19;102665.66;;;17.49;53.74
24422;BME280;12600;53.326;-6.298;2023-05-20T00:11:08;102672.00;;;17.49;53.59
24422;BME280;12600;53.326;-6.298;2023-05-20T00:13:58;102652.44;;;17.46;53.46
24422;BME280;12600;53.326;-6.298;2023-05-20T00:16:49;102672.53;;;17.51;53.31
24422;BME280;12600;53.326;-6.298;2023-05-20T00:19:41;102656.84;;;17.47;53.43
24422;BME280;12600;53.326;-6.298;2023-05-20T00:22:31;102657.88;;;17.51;53.33
24422;BME280;12600;53.326;-6.298;2023-05-20T00:25:25;102656.25;;;17.50;53.30
24422;BME280;12600;53.326;-6.298;2023-05-20T00:28:17;102662.91;;;17.49;53.46
24422;BME280;12600;53.326;-6.298;2023-05-20T00:31:08;102667.91;;;17.47;53.41
24422;BME280;12600;53.326;-6.298;2023-05-20T00:33:59;102584.91;;;16.97;53.26
24422;BME280;12600;53.326;-6.298;2023-05-20T00:36:48;102657.56;;;17.39;53.34
24422;BME280;12600;53.326;-6.298;2023-05-20T00:39:38;102659.72;;;17.42;53.51
24422;BME280;12600;53.326;-6.298;2023-05-20T00:42:28;102653.56;;;17.31;53.61
24422;BME280;12600;53.326;-6.298;2023-05-20T00:45:18;102659.81;;;17.37;53.64
24422;BME280;12600;53.326;-6.298;2023-05-20T00:48:07;102659.31;;;17.34;53.99
24422;BME280;12600;53.326;-6.298;2023-05-20T00:50:59;102650.38;;;17.24;53.79
24422;BME280;12600;53.326;-6.298;2023-05-20T00:53:50;102660.72;;;17.32;54.07
24422;BME280;12600;53.326;-6.298;2023-05-20T00:56:44;102660.72;;;17.32;54.06
24422;BME280;12600;53.326;-6.298;2023-05-20T00:59:34;102647.22;;;17.30;54.35
24422;BME280;12600;53.326;-6.298;2023-05-20T01:02:23;102645.59;;;17.29;54.44
24422;BME280;12600;53.326;-6.298;2023-05-20T01:05:13;102653.97;;;17.38;54.36
24422;BME280;12600;53.326;-6.298;2023-05-20T01:08:04;102644.38;;;17.36;54.64
24422;BME280;12600;53.326;-6.298;2023-05-20T01:11:01;102642.72;;;17.34;54.72
24422;BME280;12600;53.326;-6.298;2023-05-20T01:13:56;102631.69;;;17.34;54.85
24422;BME280;12600;53.326;-6.298;2023-05-20T01:16:49;102630.47;;;17.41;54.72
24422;BME280;12600;53.326;-6.298;2023-05-20T01:19:41;102624.72;;;17.37;54.78
24422;BME280;12600;53.326;-6.298;2023-05-20T01:22:32;102629.00;;;17.43;54.69
24422;BME280;12600;53.326;-6.298;2023-05-20T01:25:24;102630.47;;;17.41;54.67
24422;BME280;12600;53.326;-6.298;2023-05-20T01:28:14;102634.72;;;17.47;54.75
24422;BME280;12600;53.326;-6.298;2023-05-20T01:31:13;102631.97;;;17.47;55.03
24422;BME280;12600;53.326;-6.298;2023-05-20T01:34:05;102626.44;;;17.47;54.78
24422;BME280;12600;53.326;-6.298;2023-05-20T01:36:54;102627.56;;;17.46;54.76
24422;BME280;12600;53.326;-6.298;2023-05-20T01:39:47;102612.75;;;17.42;54.68
24422;BME280;12600;53.326;-6.298;2023-05-20T01:42:38;102612.94;;;17.45;54.89
24422;BME280;12600;53.326;-6.298;2023-05-20T01:45:30;102610.00;;;17.42;54.64
24422;BME280;12600;53.326;-6.298;2023-05-20T01:48:20;102624.00;;;17.45;54.77
24422;BME280;12600;53.326;-6.298;2023-05-20T01:51:09;102609.34;;;17.45;54.64
24422;BME280;12600;53.326;-6.298;2023-05-20T01:53:59;102611.13;;;17.41;54.71
24422;BME280;12600;53.326;-6.298;2023-05-20T01:56:50;102609.56;;;17.34;54.57
24422;BME280;12600;53.326;-6.298;2023-05-20T01:59:43;102617.97;;;17.29;55.00
24422;BME280;12600;53.326;-6.298;2023-05-20T02:02:32;102608.75;;;17.20;55.17
24422;BME280;12600;53.326;-6.298;2023-05-20T02:05:22;102609.38;;;17.17;55.80
24422;BME280;12600;53.326;-6.298;2023-05-20T02:08:11;102612.22;;;17.12;55.91
24422;BME280;12600;53.326;-6.298;2023-05-20T02:11:00;102604.66;;;17.04;56.23
24422;BME280;12600;53.326;-6.298;2023-05-20T02:13:52;102603.00;;;17.03;56.98
24422;BME280;12600;53.326;-6.298;2023-05-20T02:16:42;102597.00;;;17.01;57.33
24422;BME280;12600;53.326;-6.298;2023-05-20T02:19:33;102590.09;;;16.98;57.87
24422;BME280;12600;53.326;-6.298;2023-05-20T02:22:22;102596.75;;;16.97;57.79
24422;BME280;12600;53.326;-6.298;2023-05-20T02:25:11;102597.88;;;16.96;58.09
24422;BME280;12600;53.326;-6.298;2023-05-20T02:28:03;102602.91;;;16.94;58.37
24422;BME280;12600;53.326;-6.298;2023-05-20T02:30:58;102591.31;;;16.92;58.91
24422;BME280;12600;53.326;-6.298;2023-05-20T02:33:51;102589.25;;;16.84;59.30
24422;BME280;12600;53.326;-6.298;2023-05-20T02:36:40;102607.50;;;16.85;59.96
24422;BME280;12600;53.326;-6.298;2023-05-20T02:39:30;102585.69;;;16.70;60.21
24422;BME280;12600;53.326;-6.298;2023-05-20T02:42:19;102600.81;;;16.72;60.54
24422;BME280;12600;53.326;-6.298;2023-05-20T02:45:10;102594.47;;;16.72;60.53
24422;BME280;12600;53.326;-6.298;2023-05-20T02:48:00;102605.28;;;16.68;61.08
24422;BME280;12600;53.326;-6.298;2023-05-20T02:50:51;102605.28;;;16.68;60.92
24422;BME280;12600;53.326;-6.298;2023-05-20T02:53:41;102597.59;;;16.65;61.34
24422;BME280;12600;53.326;-6.298;2023-05-20T02:56:31;102591.06;;;16.61;61.63
24422;BME280;12600;53.326;-6.298;2023-05-20T02:59:22;102573.53;;;16.52;61.65
24422;BME280;12600;53.326;-6.298;2023-05-20T03:02:12;102576.28;;;16.52;61.77
24422;BME280;12600;53.326;-6.298;2023-05-20T03:05:03;102577.13;;;16.53;61.79
24422;BME280;12600;53.326;-6.298;2023-05-20T03:07:53;102579.16;;;16.47;62.08
24422;BME280;12600;53.326;-6.298;2023-05-20T03:10:42;102571.75;;;16.42;62.08
24422;BME280;12600;53.326;-6.298;2023-05-20T03:13:31;102575.88;;;16.45;62.21
24422;BME280;12600;53.326;-6.298;2023-05-20T03:16:21;102561.34;;;16.39;62.15
24422;BME280;12600;53.326;-6.298;2023-05-20T03:19:12;102564.84;;;16.45;62.43
24422;BME280;12600;53.326;-6.298;2023-05-20T03:22:03;102553.88;;;16.40;62.40
24422;BME280;12600;53.326;-6.298;2023-05-20T03:24:53;102556.66;;;16.40;62.55
24422;BME280;12600;53.326;-6.298;2023-05-20T03:27:42;102543.84;;;16.30;62.38
24422;BME280;12600;53.326;-6.298;2023-05-20T03:30:33;102558.28;;;16.41;62.43
24422;BME280;12600;53.326;-6.298;2023-05-20T03:33:23;102552.25;;;16.39;62.58
24422;BME280;12600;53.326;-6.298;2023-05-20T03:36:14;102551.94;;;16.40;62.53
24422;BME280;12600;53.326;-6.298;2023-05-20T03:39:05;102552.75;;;16.41;62.47
24422;BME280;12600;53.326;-6.298;2023-05-20T03:41:54;102549.50;;;16.39;62.51
24422;BME280;12600;53.326;-6.298;2023-05-20T03:44:44;102554.69;;;16.40;62.72
24422;BME280;12600;53.326;-6.298;2023-05-20T03:47:35;102544.47;;;16.41;62.39
24422;BME280;12600;53.326;-6.298;2023-05-20T03:50:26;102541.72;;;16.41;62.64
24422;BME280;12600;53.326;-6.298;2023-05-20T03:53:15;102535.59;;;16.44;62.45
24422;BME280;12600;53.326;-6.298;2023-05-20T03:56:08;102536.22;;;16.41;62.41
24422;BME280;12600;53.326;-6.298;2023-05-20T03:58:59;102540.00;;;16.45;62.32
24422;BME280;12600;53.326;-6.298;2023-05-20T04:01:49;102540.28;;;16.43;62.58
24422;BME280;12600;53.326;-6.298;2023-05-20T04:04:38;102540.53;;;16.47;62.44
24422;BME280;12600;53.326;-6.298;2023-05-20T04:07:30;102531.13;;;16.48;62.25
24422;BME280;12600;53.326;-6.298;2023-05-20T04:10:19;102532.56;;;16.45;62.33
24422;BME280;12600;53.326;-6.298;2023-05-20T04:13:13;102528.44;;;16.43;62.49
24422;BME280;12600;53.326;-6.298;2023-05-20T04:16:02;102536.63;;;16.48;62.67
24422;BME280;12600;53.326;-6.298;2023-05-20T04:18:52;102527.53;;;16.47;62.48
24422;BME280;12600;53.326;-6.298;2023-05-20T04:21:42;102521.50;;;16.45;62.34
24422;BME280;12600;53.326;-6.298;2023-05-20T04:24:32;102532.81;;;16.44;62.35
24422;BME280;12600;53.326;-6.298;2023-05-20T04:27:21;102537.84;;;16.42;62.54
24422;BME280;12600;53.326;-6.298;2023-05-20T04:30:13;102537.84;;;16.42;62.55
24422;BME280;12600;53.326;-6.298;2023-05-20T04:33:04;102535.91;;;16.42;62.62
24422;BME280;12600;53.326;-6.298;2023-05-20T04:35:54;102536.22;;;16.41;62.35
24422;BME280;12600;53.326;-6.298;2023-05-20T04:38:45;102534.56;;;16.40;62.52
24422;BME280;12600;53.326;-6.298;2023-05-20T04:41:35;102540.09;;;16.40;62.96
24422;BME280;12600;53.326;-6.298;2023-05-20T04:44:24;102542.84;;;16.40;62.88
24422;BME280;12600;53.326;-6.298;2023-05-20T04:47:16;102537.03;;;16.41;62.94
24422;BME280;12600;53.326;-6.298;2023-05-20T04:50:08;102546.13;;;16.42;62.79
24422;BME280;12600;53.326;-6.298;2023-05-20T04:53:00;102540.09;;;16.40;62.71
24422;BME280;12600;53.326;-6.298;2023-05-20T04:55:53;102529.06;;;16.40;62.88
24422;BME280;12600;53.326;-6.298;2023-05-20T04:58:44;102544.41;;;16.46;63.13
24422;BME280;12600;53.326;-6.298;2023-05-20T05:01:33;102539.69;;;16.46;62.90
24422;BME280;12600;53.326;-6.298;2023-05-20T05:04:24;102537.75;;;16.47;62.98
24422;BME280;12600;53.326;-6.298;2023-05-20T05:07:13;102538.56;;;16.47;62.75
24422;BME280;12600;53.326;-6.298;2023-05-20T05:10:03;102537.53;;;16.43;63.24
24422;BME280;12600;53.326;-6.298;2023-05-20T05:12:53;102536.81;;;16.38;63.37
24422;BME280;12600;53.326;-6.298;2023-05-20T05:15:42;102524.84;;;16.29;63.74
24422;BME280;12600;53.326;-6.298;2023-05-20T05:18:32;102540.28;;;16.30;63.98
24422;BME280;12600;53.326;-6.298;2023-05-20T05:21:23;102537.50;;;16.30;63.70
24422;BME280;12600;53.326;-6.298;2023-05-20T05:24:13;102538.03;;;16.32;64.24
24422;BME280;12600;53.326;-6.298;2023-05-20T05:27:03;102543.84;;;16.30;64.09
24422;BME280;12600;53.326;-6.298;2023-05-20T05:29:52;102542.22;;;16.29;64.16
24422;BME280;12600;53.326;-6.298;2023-05-20T05:32:42;102543.84;;;16.30;64.27
24422;BME280;12600;53.326;-6.298;2023-05-20T05:35:32;102538.53;;;16.34;64.47
24422;BME280;12600;53.326;-6.298;2023-05-20T05:38:23;102534.38;;;16.36;64.36
24422;BME280;12600;53.326;-6.298;2023-05-20T05:41:13;102535.19;;;16.37;64.57
24422;BME280;12600;53.326;-6.298;2023-05-20T05:44:03;102517.09;;;16.31;64.70
24422;BME280;12600;53.326;-6.298;2023-05-20T05:46:53;102532.13;;;16.38;64.52
24422;BME280;12600;53.326;-6.298;2023-05-20T05:49:42;102521.91;;;16.39;64.84
24422;BME280;12600;53.326;-6.298;2023-05-20T05:52:31;102535.59;;;16.44;64.74
24422;BME280;12600;53.326;-6.298;2023-05-20T05:55:24;102518.91;;;16.35;64.79
24422;BME280;12600;53.326;-6.298;2023-05-20T05:58:15;102543.47;;;16.50;64.87
24422;BME280;12600;53.326;-6.298;2023-05-20T06:01:05;102534.63;;;16.54;64.89
24422;BME280;12600;53.326;-6.298;2023-05-20T06:03:54;102527.34;;;16.58;64.82
24422;BME280;12600;53.326;-6.298;2023-05-20T06:06:44;102524.81;;;16.61;64.84
24422;BME280;12600;53.326;-6.298;2023-05-20T06:09:36;102531.34;;;16.65;64.55
24422;BME280;12600;53.326;-6.298;2023-05-20T06:12:27;102525.31;;;16.63;64.87
24422;BME280;12600;53.326;-6.298;2023-05-20T06:15:19;102528.91;;;16.64;65.02
24422;BME280;12600;53.326;-6.298;2023-05-20T06:18:11;102528.09;;;16.63;64.69
24422;BME280;12600;53.326;-6.298;2023-05-20T06:21:01;102528.66;;;16.60;65.17
24422;BME280;12600;53.326;-6.298;2023-05-20T06:23:54;102516.19;;;16.49;65.13
24422;BME280;12600;53.326;-6.298;2023-05-20T06:26:43;102515.25;;;16.40;65.06
24422;BME280;12600;53.326;-6.298;2023-05-20T06:29:34;102525.91;;;16.46;65.21
24422;BME280;12600;53.326;-6.298;2023-05-20T06:32:24;102534.78;;;16.43;65.55
24422;BME280;12600;53.326;-6.298;2023-05-20T06:35:16;102538.47;;;16.39;65.55
24422;BME280;12600;53.326;-6.298;2023-05-20T06:38:05;102544.78;;;16.39;65.46
24422;BME280;12600;53.326;-6.298;2023-05-20T06:40:55;102534.97;;;16.33;65.38
24422;BME280;12600;53.326;-6.298;2023-05-20T06:43:45;102543.16;;;16.38;65.68
24422;BME280;12600;53.326;-6.298;2023-05-20T06:46:54;102542.84;;;16.40;65.81
24422;BME280;12600;53.326;-6.298;2023-05-20T06:49:44;102535.69;;;16.39;65.84
24422;BME280;12600;53.326;-6.298;2023-05-20T06:52:36;102532.72;;;16.35;66.10
24422;BME280;12600;53.326;-6.298;2023-05-20T06:55:25;102531.88;;;16.35;65.54
24422;BME280;12600;53.326;-6.298;2023-05-20T06:58:15;102537.13;;;16.36;65.80
24422;BME280;12600;53.326;-6.298;2023-05-20T07:01:04;102533.84;;;16.34;65.85
24422;BME280;12600;53.326;-6.298;2023-05-20T07:03:56;102523.09;;;16.33;65.78
24422;BME280;12600;53.326;-6.298;2023-05-20T07:06:45;102516.28;;;16.44;65.67
24422;BME280;12600;53.326;-6.298;2023-05-20T07:09:35;102529.19;;;16.48;65.37
24422;BME280;12600;53.326;-6.298;2023-05-20T07:12:26;102532.66;;;16.54;65.40
24422;BME280;12600;53.326;-6.298;2023-05-20T07:15:16;102529.28;;;16.57;65.38
24422;BME280;12600;53.326;-6.298;2023-05-20T07:18:05;102532.28;;;16.61;65.34
24422;BME280;12600;53.326;-6.298;2023-05-20T07:20:57;102533.28;;;16.65;65.51
24422;BME280;12600;53.326;-6.298;2023-05-20T07:24:09;102536.00;;;16.70;65.34
24422;BME280;12600;53.326;-6.298;2023-05-20T07:26:59;102535.06;;;16.74;65.21
24422;BME280;12600;53.326;-6.298;2023-05-20T07:29:48;102535.28;;;16.78;65.32
24422;BME280;12600;53.326;-6.298;2023-05-20T07:32:38;102541.31;;;16.80;65.48
24422;BME280;12600;53.326;-6.298;2023-05-20T07:35:28;102533.22;;;16.84;65.32
24422;BME280;12600;53.326;-6.298;2023-05-20T07:38:19;102526.63;;;16.85;65.47
24422;BME280;12600;53.326;-6.298;2023-05-20T07:41:17;102535.59;;;16.90;65.41
24422;BME280;12600;53.326;-6.298;2023-05-20T07:44:06;102529.75;;;16.92;65.39
24422;BME280;12600;53.326;-6.298;2023-05-20T07:47:02;102539.41;;;16.94;65.68
24422;BME280;12600;53.326;-6.298;2023-05-20T07:49:52;102536.50;;;16.99;65.42
24422;BME280;12600;53.326;-6.298;2023-05-20T07:52:45;102537.25;;;17.05;65.36
24422;BME280;12600;53.326;-6.298;2023-05-20T07:55:44;102536.59;;;17.08;65.48
24422;BME280;12600;53.326;-6.298;2023-05-20T07:58:34;102554.22;;;17.12;65.38
24422;BME280;12600;53.326;-6.298;2023-05-20T08:01:24;102551.38;;;17.17;65.36
24422;BME280;12600;53.326;-6.298;2023-05-20T08:04:14;102555.13;;;17.21;65.34
24422;BME280;12600;53.326;-6.298;2023-05-20T08:07:05;102555.34;;;17.25;65.12
24422;BME280;12600;53.326;-6.298;2023-05-20T08:10:08;102549.50;;;17.26;65.08
24422;BME280;12600;53.326;-6.298;2023-05-20T08:12:59;102541.41;;;17.30;64.95
24422;BME280;12600;53.326;-6.298;2023-05-20T08:15:51;102540.81;;;17.33;64.81
24422;BME280;12600;53.326;-6.298;2023-05-20T08:18:41;102515.47;;;17.17;64.85
24422;BME280;12600;53.326;-6.298;2023-05-20T08:21:31;102542.63;;;17.38;64.90
24422;BME280;12600;53.326;-6.298;2023-05-20T08:24:20;102539.28;;;17.41;64.73
24422;BME280;12600;53.326;-6.298;2023-05-20T08:27:09;102543.84;;;17.45;64.80
24422;BME280;12600;53.326;-6.298;2023-05-20T08:30:00;102533.50;;;17.51;64.74
24422;BME280;12600;53.326;-6.298;2023-05-20T08:32:51;102535.66;;;17.54;64.71
24422;BME280;12600;53.326;-6.298;2023-05-20T08:35:40;102528.06;;;17.59;64.57
24422;BME280;12600;53.326;-6.298;2023-05-20T08:38:30;102530.41;;;17.66;64.56
24422;BME280;12600;53.326;-6.298;2023-05-20T08:41:19;102528.66;;;17.70;64.40
24422;BME280;12600;53.326;-6.298;2023-05-20T08:44:10;102523.63;;;17.72;63.99
24422;BME280;12600;53.326;-6.298;2023-05-20T08:47:03;102518.00;;;17.77;64.16
24422;BME280;12600;53.326;-6.298;2023-05-20T08:49:53;102514.50;;;17.85;64.20
24422;BME280;12600;53.326;-6.298;2023-05-20T08:52:44;102523.19;;;17.93;64.08
24422;BME280;12600;53.326;-6.298;2023-05-20T08:55:41;102525.19;;;18.01;64.04
24422;BME280;12600;53.326;-6.298;2023-05-20T08:58:31;102522.44;;;18.01;63.73
24422;BME280;12600;53.326;-6.298;2023-05-20T09:01:23;102522.47;;;18.09;63.58
24422;BME280;12600;53.326;-6.298;2023-05-20T09:04:14;102510.78;;;18.12;63.21
24422;BME280;12600;53.326;-6.298;2023-05-20T09:07:04;102513.44;;;18.17;63.48
24422;BME280;12600;53.326;-6.298;2023-05-20T09:09:54;102507.13;;;18.26;62.94
24422;BME280;12600;53.326;-6.298;2023-05-20T09:12:43;102504.41;;;18.34;63.14
24422;BME280;12600;53.326;-6.298;2023-05-20T09:15:34;102507.06;;;18.39;62.97
24422;BME280;12600;53.326;-6.298;2023-05-20T09:18:23;102508.03;;;18.43;62.63
24422;BME280;12600;53.326;-6.298;2023-05-20T09:21:14;102508.38;;;18.42;61.95
24422;BME280;12600;53.326;-6.298;2023-05-20T09:24:04;102495.50;;;18.37;61.60
24422;BME280;12600;53.326;-6.298;2023-05-20T09:26:54;102505.78;;;18.45;61.70
24422;BME280;12600;53.326;-6.298;2023-05-20T09:29:43;102507.91;;;18.49;61.55
24422;BME280;12600;53.326;-6.298;2023-05-20T09:32:32;102511.38;;;18.54;61.58
24422;BME280;12600;53.326;-6.298;2023-05-20T09:35:22;102499.97;;;18.56;61.19
24422;BME280;12600;53.326;-6.298;2023-05-20T09:38:13;102511.41;;;18.63;60.67
24422;BME280;12600;53.326;-6.298;2023-05-20T09:41:07;102508.84;;;18.66;60.59
24422;BME280;12600;53.326;-6.298;2023-05-20T09:43:56;102513.38;;;18.62;59.93
24422;BME280;12600;53.326;-6.298;2023-05-20T09:46:47;102509.47;;;18.63;60.22
24422;BME280;12600;53.326;-6.298;2023-05-20T09:49:37;102513.38;;;18.62;59.76
24422;BME280;12600;53.326;-6.298;2023-05-20T09:52:27;102513.69;;;18.61;59.28
24422;BME280;12600;53.326;-6.298;2023-05-20T09:55:21;102507.91;;;18.49;59.00
24422;BME280;12600;53.326;-6.298;2023-05-20T09:58:12;102505.44;;;18.38;59.10
24422;BME280;12600;53.326;-6.298;2023-05-20T10:01:03;102506.69;;;18.32;59.05
24422;BME280;12600;53.326;-6.298;2023-05-20T10:03:53;102500.78;;;18.25;59.13
24422;BME280;12600;53.326;-6.298;2023-05-20T10:06:59;102496.88;;;18.26;59.51
24422;BME280;12600;53.326;-6.298;2023-05-20T10:10:06;102491.06;;;18.36;59.46
24422;BME280;12600;53.326;-6.298;2023-05-20T10:13:11;102485.28;;;18.47;59.53
24422;BME280;12600;53.326;-6.298;2023-05-20T10:19:27;102485.94;;;18.52;58.49
24422;BME280;12600;53.326;-6.298;2023-05-20T10:22:26;102477.03;;;18.55;58.28
24422;BME280;12600;53.326;-6.298;2023-05-20T10:25:25;102489.94;;;18.68;58.28
24422;BME280;12600;53.326;-6.298;2023-05-20T10:28:15;102487.25;;;18.77;58.01
24422;BME280;12600;53.326;-6.298;2023-05-20T10:31:17;102494.44;;;18.87;58.00
24422;BME280;12600;53.326;-6.298;2023-05-20T10:34:14;102494.63;;;18.99;57.87
24422;BME280;12600;53.326;-6.298;2023-05-20T10:37:04;102491.75;;;19.13;57.86
24422;BME280;12600;53.326;-6.298;2023-05-20T10:40:06;102487.69;;;19.19;57.38
24422;BME280;12600;53.326;-6.298;2023-05-20T10:42:56;102486.88;;;19.27;57.40
24422;BME280;12600;53.326;-6.298;2023-05-20T10:45:58;102484.75;;;19.33;57.07
24422;BME280;12600;53.326;-6.298;2023-05-20T10:48:52;102482.66;;;19.38;57.01
24422;BME280;12600;53.326;-6.298;2023-05-20T10:51:43;102486.91;;;19.44;56.62
24422;BME280;12600;53.326;-6.298;2023-05-20T10:54:35;102476.28;;;19.55;56.92
24422;BME280;12600;53.326;-6.298;2023-05-20T10:57:27;102479.09;;;19.64;56.67
24422;BME280;12600;53.326;-6.298;2023-05-20T11:00:16;102476.31;;;19.72;56.45
24422;BME280;12600;53.326;-6.298;2023-05-20T11:03:09;102488.56;;;19.80;55.88
24422;BME280;12600;53.326;-6.298;2023-05-20T11:06:00;102476.81;;;19.83;55.62
24422;BME280;12600;53.326;-6.298;2023-05-20T11:08:49;102471.75;;;19.85;55.38
24422;BME280;12600;53.326;-6.298;2023-05-20T11:11:38;102472.41;;;19.91;55.08
24422;BME280;12600;53.326;-6.298;2023-05-20T11:14:29;102469.63;;;19.91;54.84
24422;BME280;12600;53.326;-6.298;2023-05-20T11:17:19;102457.41;;;19.83;54.81
24422;BME280;12600;53.326;-6.298;2023-05-20T11:20:13;102466.88;;;19.91;54.83
24422;BME280;12600;53.326;-6.298;2023-05-20T11:23:04;102472.72;;;19.98;54.64
24422;BME280;12600;53.326;-6.298;2023-05-20T11:25:56;102465.84;;;20.04;54.19
24422;BME280;12600;53.326;-6.298;2023-05-20T11:28:46;102458.66;;;20.11;54.15
24422;BME280;12600;53.326;-6.298;2023-05-20T11:31:37;102468.56;;;20.30;54.13
24422;BME280;12600;53.326;-6.298;2023-05-20T11:34:33;102449.75;;;20.35;53.14
24422;BME280;12600;53.326;-6.298;2023-05-20T11:37:24;102452.84;;;20.51;53.28
24422;BME280;12600;53.326;-6.298;2023-05-20T11:40:14;102456.13;;;20.53;53.00
24422;BME280;12600;53.326;-6.298;2023-05-20T11:43:03;102422.97;;;20.39;52.78
24422;BME280;12600;53.326;-6.298;2023-05-20T11:45:54;102450.22;;;20.55;52.54
24422;BME280;12600;53.326;-6.298;2023-05-20T11:48:52;102431.31;;;20.48;52.18
24422;BME280;12600;53.326;-6.298;2023-05-20T11:51:42;102442.03;;;20.58;52.35
24422;BME280;12600;53.326;-6.298;2023-05-20T11:54:36;102451.81;;;20.64;52.25
24422;BME280;12600;53.326;-6.298;2023-05-20T11:57:25;102433.69;;;20.58;52.46
24422;BME280;12600;53.326;-6.298;2023-05-20T12:00:15;102441.84;;;20.63;52.32
24422;BME280;12600;53.326;-6.298;2023-05-20T12:03:04;102440.22;;;20.62;52.16
24422;BME280;12600;53.326;-6.298;2023-05-20T12:05:55;102443.94;;;20.66;52.18
24422;BME280;12600;53.326;-6.298;2023-05-20T12:08:45;102446.94;;;20.61;52.27
24422;BME280;12600;53.326;-6.298;2023-05-20T12:11:37;102431.78;;;20.50;52.80
24422;BME280;12600;53.326;-6.298;2023-05-20T12:14:28;102434.91;;;20.40;53.46
24422;BME280;12600;53.326;-6.298;2023-05-20T12:17:18;102437.22;;;20.29;54.25
24422;BME280;12600;53.326;-6.298;2023-05-20T12:20:09;102443.34;;;20.05;54.51
24422;BME280;12600;53.326;-6.298;2023-05-20T12:22:58;102445.13;;;20.01;54.67
24422;BME280;12600;53.326;-6.298;2023-05-20T12:25:48;102436.00;;;20.01;54.83
24422;BME280;12600;53.326;-6.298;2023-05-20T12:28:39;102433.38;;;19.96;55.01
24422;BME280;12600;53.326;-6.298;2023-05-20T12:31:28;102432.91;;;19.94;55.03
24422;BME280;12600;53.326;-6.298;2023-05-20T12:34:21;102418.09;;;19.72;54.82
24422;BME280;12600;53.326;-6.298;2023-05-20T12:37:10;102435.56;;;19.81;55.06
24422;BME280;12600;53.326;-6.298;2023-05-20T12:40:00;102429.66;;;19.83;55.14
24422;BME280;12600;53.326;-6.298;2023-05-20T12:42:52;102419.72;;;19.91;55.04
24422;BME280;12600;53.326;-6.298;2023-05-20T12:45:43;102422.13;;;20.01;55.17
24422;BME280;12600;53.326;-6.298;2023-05-20T12:48:32;102412.63;;;20.10;54.99
24422;BME280;12600;53.326;-6.298;2023-05-20T12:51:21;102395.31;;;20.14;54.90
24422;BME280;12600;53.326;-6.298;2023-05-20T12:54:11;102416.69;;;20.22;54.63
24422;BME280;12600;53.326;-6.298;2023-05-20T12:57:00;102405.72;;;20.25;54.68
24422;BME280;12600;53.326;-6.298;2023-05-20T12:59:50;102405.22;;;20.32;54.29
24422;BME280;12600;53.326;-6.298;2023-05-20T13:02:41;102399.78;;;20.44;54.48
24422;BME280;12600;53.326;-6.298;2023-05-20T13:05:31;102408.38;;;20.60;53.86
24422;BME280;12600;53.326;-6.298;2023-05-20T13:08:20;102406.69;;;20.67;53.65
24422;BME280;12600;53.326;-6.298;2023-05-20T13:11:09;102398.63;;;20.75;52.87
24422;BME280;12600;53.326;-6.298;2023-05-20T13:13:59;102399.28;;;20.80;52.31
24422;BME280;12600;53.326;-6.298;2023-05-20T13:16:49;102402.47;;;20.91;52.26
24422;BME280;12600;53.326;-6.298;2023-05-20T13:19:43;102386.41;;;20.97;51.88
24422;BME280;12600;53.326;-6.298;2023-05-20T13:22:32;102385.88;;;21.03;51.40
24422;BME280;12600;53.326;-6.298;2023-05-20T13:25:22;102396.94;;;21.12;50.93
24422;BME280;12600;53.326;-6.298;2023-05-20T13:28:11;102387.25;;;21.18;51.25
24422;BME280;12600;53.326;-6.298;2023-05-20T13:31:05;102386.69;;;21.24;51.00
24422;BME280;12600;53.326;-6.298;2023-05-20T13:34:00;102375.50;;;21.33;50.75
24422;BME280;12600;53.326;-6.298;2023-05-20T13:36:51;102374.16;;;21.39;50.80
24422;BME280;12600;53.326;-6.298;2023-05-20T13:39:40;102321.88;;;21.12;50.27
24422;BME280;12600;53.326;-6.298;2023-05-20T13:42:30;102364.81;;;21.44;50.30
24422;BME280;12600;53.326;-6.298;2023-05-20T13:45:19;102359.00;;;21.49;50.16
24422;BME280;12600;53.326;-6.298;2023-05-20T13:48:09;102357.63;;;21.43;49.92
24422;BME280;12600;53.326;-6.298;2023-05-20T13:50:59;102354.13;;;21.25;49.41
24422;BME280;12600;53.326;-6.298;2023-05-20T13:53:50;102355.34;;;21.15;49.33
24422;BME280;12600;53.326;-6.298;2023-05-20T13:56:39;102350.97;;;21.14;49.37
24422;BME280;12600;53.326;-6.298;2023-05-20T13:59:29;102342.50;;;21.11;49.36
24422;BME280;12600;53.326;-6.298;2023-05-20T14:02:18;102354.69;;;21.18;49.46
24422;BME280;12600;53.326;-6.298;2023-05-20T14:05:08;102348.44;;;21.21;49.34
24422;BME280;12600;53.326;-6.298;2023-05-20T14:07:58;102345.63;;;21.30;49.34
24422;BME280;12600;53.326;-6.298;2023-05-20T14:10:48;102347.38;;;21.35;49.34
24422;BME280;12600;53.326;-6.298;2023-05-20T14:13:41;102339.50;;;21.37;49.21
24422;BME280;12600;53.326;-6.298;2023-05-20T14:16:31;102339.97;;;21.39;49.10
24422;BME280;12600;53.326;-6.298;2023-05-20T14:19:21;102347.41;;;21.47;49.04
24422;BME280;12600;53.326;-6.298;2023-05-20T14:22:10;102330.38;;;21.48;49.00
24422;BME280;12600;53.326;-6.298;2023-05-20T14:25:02;102327.22;;;21.38;48.92
24422;BME280;12600;53.326;-6.298;2023-05-20T14:27:53;102330.44;;;21.28;49.09
24422;BME280;12600;53.326;-6.298;2023-05-20T14:30:46;102327.84;;;21.22;49.27
24422;BME280;12600;53.326;-6.298;2023-05-20T14:33:37;102314.91;;;21.06;49.34
24422;BME280;12600;53.326;-6.298;2023-05-20T14:36:29;102324.31;;;20.92;49.39
24422;BME280;12600;53.326;-6.298;2023-05-20T14:39:21;102319.09;;;20.91;49.83
24422;BME280;12600;53.326;-6.298;2023-05-20T14:42:11;102325.13;;;20.93;49.82
24422;BME280;12600;53.326;-6.298;2023-05-20T14:45:02;102321.88;;;20.91;49.91
24422;BME280;12600;53.326;-6.298;2023-05-20T14:47:51;102319.56;;;20.93;49.84